createdAt,value
2022-10-22T00:03:35.240Z,27.40
2022-10-22T00:08:38.449Z,21.60
2022-10-22T00:13:42.272Z,20.30
2022-10-22T00:18:45.181Z,22.30
2022-10-22T00:23:47.981Z,22.00
2022-10-22T00:28:51.094Z,22.00
2022-10-22T00:33:53.903Z,22.70
2022-10-22T00:38:56.693Z,20.70
2022-10-22T00:44:04.825Z,23.90
2022-10-22T00:49:07.624Z,19.70
2022-10-22T00:54:10.977Z,20.30
2022-10-22T00:59:17.018Z,22.00
2022-10-22T01:04:21.126Z,24.90
2022-10-22T01:09:44.850Z,19.30
2022-10-22T01:15:21.946Z,20.90
2022-10-22T01:20:31.097Z,23.40
2022-10-22T01:26:04.209Z,20.00
2022-10-22T01:31:09.980Z,21.30
2022-10-22T01:36:14.423Z,21.90
2022-10-22T01:41:17.427Z,28.30
2022-10-22T01:46:22.891Z,25.30
2022-10-22T01:51:40.132Z,21.00
2022-10-22T01:57:25.840Z,22.60
2022-10-22T02:02:34.870Z,24.20
2022-10-22T02:07:43.940Z,23.70
2022-10-22T02:12:52.320Z,23.80
2022-10-22T02:17:58.756Z,21.80
2022-10-22T02:23:02.416Z,23.90
2022-10-22T02:28:33.646Z,22.80
2022-10-22T02:33:41.750Z,25.30
2022-10-22T02:38:47.034Z,22.80
2022-10-22T02:43:53.728Z,23.40
2022-10-22T02:48:56.529Z,21.70
2022-10-22T02:53:59.328Z,28.00
2022-10-22T02:59:02.133Z,18.00
2022-10-22T03:04:05.323Z,24.70
2022-10-22T03:09:08.186Z,27.20
2022-10-22T03:14:10.969Z,22.70
2022-10-22T03:19:13.849Z,29.50
2022-10-22T03:24:27.676Z,28.80
2022-10-22T03:29:34.362Z,26.20
2022-10-22T03:34:37.206Z,23.20
2022-10-22T03:39:40.853Z,25.20
2022-10-22T03:44:43.934Z,27.80
2022-10-22T03:49:46.742Z,27.70
2022-10-22T03:54:50.050Z,20.30
2022-10-22T03:59:52.957Z,22.90
2022-10-22T04:04:55.858Z,22.80
2022-10-22T04:09:58.660Z,23.70
2022-10-22T04:15:01.467Z,31.30
2022-10-22T04:20:05.459Z,25.60
2022-10-22T04:25:09.118Z,22.40
2022-10-22T04:30:12.997Z,21.50
2022-10-22T04:35:15.932Z,20.80
2022-10-22T04:40:18.704Z,28.10
2022-10-22T04:45:21.549Z,23.40
2022-10-22T04:50:24.455Z,31.20
2022-10-22T04:55:27.376Z,22.40
2022-10-22T05:00:30.364Z,26.30
2022-10-22T05:05:33.373Z,30.00
2022-10-22T05:10:36.174Z,25.20
2022-10-22T05:15:38.974Z,25.70
2022-10-22T05:20:42.634Z,30.60
2022-10-22T05:25:45.399Z,29.40
2022-10-22T05:31:00.012Z,27.90
2022-10-22T05:36:05.911Z,28.70
2022-10-22T05:41:16.123Z,33.60
2022-10-22T05:46:22.877Z,38.40
2022-10-22T05:51:28.179Z,31.50
2022-10-22T05:56:32.233Z,31.00
2022-10-22T06:01:36.142Z,35.50
2022-10-22T06:06:48.054Z,38.30
2022-10-22T06:11:52.047Z,32.50
2022-10-22T06:16:55.896Z,34.30
2022-10-22T06:21:59.121Z,38.70
2022-10-22T06:27:02.029Z,34.40
2022-10-22T06:32:05.714Z,35.40
2022-10-22T06:37:10.435Z,39.30
2022-10-22T06:42:13.296Z,36.60
2022-10-22T06:47:16.311Z,33.90
2022-10-22T06:52:19.412Z,32.70
2022-10-22T06:57:22.316Z,37.50
2022-10-22T07:02:25.117Z,37.50
2022-10-22T07:07:27.922Z,32.80
2022-10-22T07:12:30.723Z,32.80
2022-10-22T07:17:33.772Z,30.10
2022-10-22T07:22:36.741Z,32.80
2022-10-22T07:27:39.712Z,26.30
2022-10-22T07:32:42.748Z,35.00
2022-10-22T07:37:45.550Z,24.30
2022-10-22T07:42:48.562Z,37.90
2022-10-22T07:47:51.361Z,31.90
2022-10-22T07:52:56.087Z,22.50
2022-10-22T07:58:01.757Z,16.50
2022-10-22T08:03:05.088Z,14.00
2022-10-22T08:08:07.892Z,14.30
2022-10-22T08:13:11.207Z,20.30
2022-10-22T08:18:14.500Z,17.40
2022-10-22T08:23:17.321Z,12.90
2022-10-22T08:28:22.057Z,12.70
2022-10-22T08:33:25.384Z,11.10
2022-10-22T08:38:29.105Z,12.70
2022-10-22T08:43:47.366Z,11.20
2022-10-22T08:48:54.414Z,13.10
2022-10-22T08:54:29.635Z,14.50
2022-10-22T08:59:55.578Z,9.10
2022-10-22T09:05:25.419Z,12.80
2022-10-22T09:10:36.916Z,12.30
2022-10-22T09:15:41.660Z,11.90
2022-10-22T09:20:51.022Z,9.70
2022-10-22T09:25:55.562Z,10.30
2022-10-22T09:36:08.025Z,9.40
2022-10-22T09:41:10.930Z,12.00
2022-10-22T09:46:27.453Z,16.30
2022-10-22T09:51:46.460Z,12.80
2022-10-22T09:56:54.561Z,14.00
2022-10-22T10:02:37.453Z,16.20
2022-10-22T10:07:41.901Z,11.90
2022-10-22T10:12:54.067Z,15.10
2022-10-22T10:18:08.745Z,12.80
2022-10-22T10:23:44.319Z,16.10
2022-10-22T10:28:59.406Z,10.80
2022-10-22T10:34:08.045Z,21.30
2022-10-22T10:39:25.594Z,16.00
2022-10-22T10:44:55.329Z,16.70
2022-10-22T10:50:17.481Z,16.90
2022-10-22T10:56:07.183Z,15.40
2022-10-22T11:01:10.089Z,21.00
2022-10-22T11:06:19.399Z,23.80
2022-10-22T11:11:42.007Z,23.80
2022-10-22T11:16:53.843Z,22.40
2022-10-22T11:22:06.452Z,22.00
2022-10-22T11:27:21.644Z,21.90
2022-10-22T11:32:26.704Z,25.60
2022-10-22T11:37:39.097Z,25.30
2022-10-22T11:42:57.818Z,14.80
2022-10-22T11:48:12.691Z,19.00
2022-10-22T11:53:19.285Z,33.40
2022-10-22T11:58:28.434Z,35.80
2022-10-22T12:03:31.242Z,38.70
2022-10-22T12:08:34.734Z,31.30
2022-10-22T12:13:58.951Z,31.60
2022-10-22T12:19:32.885Z,36.20
2022-10-22T12:24:40.811Z,33.40
2022-10-22T12:29:43.605Z,34.80
2022-10-22T12:34:52.492Z,25.90
2022-10-22T12:39:55.457Z,32.60
2022-10-22T12:44:58.260Z,33.60
2022-10-22T12:50:04.004Z,31.70
2022-10-22T12:55:10.382Z,34.00
2022-10-22T13:00:25.583Z,41.60
2022-10-22T13:05:38.981Z,50.60
2022-10-22T13:10:49.131Z,48.90
2022-10-22T13:15:51.832Z,63.20
2022-10-22T13:20:57.443Z,52.80
2022-10-22T13:26:15.165Z,58.90
2022-10-22T13:31:27.714Z,42.00
2022-10-22T13:36:30.518Z,50.90
2022-10-22T13:46:43.643Z,57.60
2022-10-22T13:51:47.349Z,49.90
2022-10-22T13:56:50.501Z,45.90
2022-10-22T14:01:54.957Z,54.10
2022-10-22T14:06:59.963Z,62.10
2022-10-22T14:12:17.231Z,53.50
2022-10-22T14:17:20.545Z,52.50
2022-10-22T14:22:26.929Z,52.10
2022-10-22T14:27:30.241Z,44.40
2022-10-22T14:32:33.043Z,45.20
2022-10-22T14:37:35.861Z,49.10
2022-10-22T14:42:43.807Z,63.00
2022-10-22T14:47:47.818Z,46.50
2022-10-22T14:52:51.773Z,59.90
2022-10-22T14:57:55.240Z,59.30
2022-10-22T15:03:03.308Z,54.00
2022-10-22T15:08:07.231Z,37.60
2022-10-22T15:13:10.106Z,48.20
2022-10-22T15:18:13.008Z,36.60
2022-10-22T15:23:15.917Z,47.50
2022-10-22T15:28:18.917Z,51.40
2022-10-22T15:33:21.819Z,46.30
2022-10-22T15:43:34.059Z,50.50
2022-10-22T15:48:36.983Z,61.30
2022-10-22T15:53:40.579Z,57.00
2022-10-22T15:58:43.816Z,54.60
2022-10-22T16:03:46.827Z,54.60
2022-10-22T16:08:49.743Z,53.60
2022-10-22T16:13:57.047Z,44.60
2022-10-22T16:19:00.042Z,46.00
2022-10-22T16:24:06.142Z,40.60
2022-10-22T16:29:11.685Z,50.80
2022-10-22T16:34:14.896Z,45.10
2022-10-22T16:39:17.805Z,48.60
2022-10-22T16:44:20.707Z,38.50
2022-10-22T16:49:23.817Z,44.50
2022-10-22T16:54:26.720Z,39.30
2022-10-22T16:59:29.519Z,40.40
2022-10-22T17:04:33.959Z,36.30
2022-10-22T17:09:36.761Z,38.10
2022-10-22T17:14:39.666Z,36.70
2022-10-22T17:19:42.570Z,39.80
2022-10-22T17:24:45.371Z,33.50
2022-10-22T17:29:48.276Z,32.50
2022-10-22T17:34:51.179Z,26.50
2022-10-22T17:39:53.984Z,30.20
2022-10-22T17:44:57.604Z,28.80
2022-10-22T17:50:00.630Z,30.50
2022-10-22T17:55:04.269Z,34.10
2022-10-22T18:00:08.584Z,26.30
2022-10-22T18:05:12.803Z,28.20
2022-10-22T18:10:15.706Z,30.10
2022-10-22T18:15:18.611Z,24.50
2022-10-22T18:20:21.827Z,22.50
2022-10-22T18:25:24.760Z,25.60
2022-10-22T18:30:27.733Z,22.90
2022-10-22T18:35:32.546Z,20.10
2022-10-22T18:40:36.249Z,26.40
2022-10-22T18:45:47.095Z,25.60
2022-10-22T18:51:00.138Z,22.50
2022-10-22T18:56:07.952Z,24.80
2022-10-22T19:01:13.454Z,18.50
2022-10-22T19:06:24.618Z,23.10
2022-10-22T19:11:27.937Z,20.40
2022-10-22T19:16:30.836Z,19.10
2022-10-22T19:21:35.687Z,16.90
2022-10-22T19:26:39.103Z,17.20
2022-10-22T19:31:42.620Z,21.70
2022-10-22T19:36:45.521Z,17.10
2022-10-22T19:41:48.638Z,20.50
2022-10-22T19:46:51.541Z,20.60
2022-10-22T19:51:54.304Z,24.70
2022-10-22T19:56:57.183Z,23.00
2022-10-22T20:02:00.904Z,25.90
2022-10-22T20:07:04.588Z,31.10
2022-10-22T20:12:07.598Z,29.40
2022-10-22T20:17:10.601Z,35.00
2022-10-22T20:22:16.297Z,42.60
2022-10-22T20:27:21.734Z,33.70
2022-10-22T20:32:27.205Z,33.40
2022-10-22T20:37:30.004Z,41.50
2022-10-22T20:42:34.236Z,43.00
2022-10-22T20:47:50.865Z,32.00
2022-10-22T20:52:54.689Z,42.90
2022-10-22T20:57:58.000Z,43.10
2022-10-22T21:03:00.807Z,38.30
2022-10-22T21:08:05.242Z,36.40
2022-10-22T21:13:08.557Z,36.70
2022-10-22T21:18:11.459Z,38.10
2022-10-22T21:23:14.263Z,28.70
2022-10-22T21:28:17.094Z,34.10
2022-10-22T21:33:20.765Z,39.80
2022-10-22T21:38:25.190Z,33.70
2022-10-22T21:43:28.031Z,34.40
2022-10-22T21:48:31.037Z,37.00
2022-10-22T21:53:34.693Z,29.00
2022-10-22T21:58:37.765Z,30.90
2022-10-22T22:03:48.356Z,32.20
2022-10-22T22:08:53.510Z,30.90
2022-10-22T22:13:57.923Z,32.80
2022-10-22T22:19:07.407Z,33.70
2022-10-22T22:29:14.647Z,32.10
2022-10-22T22:34:18.153Z,26.90
2022-10-22T22:39:23.806Z,29.20
2022-10-22T22:44:26.591Z,26.50
2022-10-22T22:49:29.399Z,24.60
2022-10-22T22:54:32.339Z,26.40
2022-10-22T22:59:35.142Z,23.90
2022-10-22T23:04:37.944Z,25.60
2022-10-22T23:09:40.849Z,25.50
2022-10-22T23:14:43.963Z,28.40
2022-10-22T23:19:46.861Z,22.70
2022-10-22T23:24:49.764Z,26.20
2022-10-22T23:29:52.477Z,26.20
2022-10-22T23:34:55.371Z,22.80
2022-10-22T23:39:58.109Z,25.00
2022-10-22T23:45:00.970Z,29.20
2022-10-22T23:50:04.082Z,19.10
2022-10-22T23:55:07.862Z,23.40
